createdAt,value
2023-01-06T00:01:13.623Z,101668.16
2023-01-06T00:03:41.284Z,101667.50
2023-01-06T00:06:11.814Z,101670.66
2023-01-06T00:08:41.330Z,101669.69
2023-01-06T00:11:09.767Z,101673.19
2023-01-06T00:13:37.564Z,101669.31
2023-01-06T00:16:06.779Z,101668.06
2023-01-06T00:18:35.909Z,101667.03
2023-01-06T00:21:04.609Z,101671.16
2023-01-06T00:23:32.732Z,101654.72
2023-01-06T00:26:01.731Z,101661.53
2023-01-06T00:28:29.904Z,101649.97
2023-01-06T00:30:57.804Z,101650.97
2023-01-06T00:33:25.668Z,101643.25
2023-01-06T00:35:53.078Z,101638.59
2023-01-06T00:38:23.554Z,101633.75
2023-01-06T00:40:51.020Z,101650.88
2023-01-06T00:43:19.775Z,101660.91
2023-01-06T00:45:47.220Z,101646.75
2023-01-06T00:48:16.512Z,101652.69
2023-01-06T00:50:44.182Z,101653.03
2023-01-06T00:53:11.599Z,101655.75
2023-01-06T00:55:41.406Z,101654.38
2023-01-06T00:58:11.852Z,101655.09
2023-01-06T01:00:40.596Z,101650.13
2023-01-06T01:03:08.086Z,101652.16
2023-01-06T01:05:35.467Z,101656.41
2023-01-06T01:08:02.913Z,101662.34
2023-01-06T01:10:30.348Z,101637.50
2023-01-06T01:12:59.658Z,101648.22
2023-01-06T01:15:27.044Z,101652.50
2023-01-06T01:17:55.799Z,101649.06
2023-01-06T01:20:23.291Z,101644.81
2023-01-06T01:22:50.748Z,101638.53
2023-01-06T01:25:18.198Z,101641.63
2023-01-06T01:27:45.616Z,101635.19
2023-01-06T01:30:13.137Z,101638.28
2023-01-06T01:32:40.557Z,101625.88
2023-01-06T01:35:10.292Z,101621.75
2023-01-06T01:37:37.713Z,101619.78
2023-01-06T01:40:06.462Z,101624.81
2023-01-06T01:42:33.965Z,101628.97
2023-01-06T01:45:04.011Z,101630.22
2023-01-06T01:47:45.360Z,101627.22
2023-01-06T01:50:23.888Z,101628.78
2023-01-06T01:52:55.577Z,101633.03
2023-01-06T01:55:23.789Z,101626.69
2023-01-06T01:57:55.498Z,101620.72
2023-01-06T02:00:23.172Z,101624.72
2023-01-06T02:02:51.115Z,101615.31
2023-01-06T02:05:24.418Z,101616.94
2023-01-06T02:07:53.072Z,101618.34
2023-01-06T02:10:22.647Z,101618.75
2023-01-06T02:12:55.079Z,101612.22
2023-01-06T02:15:25.480Z,101618.97
2023-01-06T02:18:07.420Z,101621.31
2023-01-06T02:20:47.053Z,101608.00
2023-01-06T02:23:54.166Z,101608.53
2023-01-06T02:26:53.202Z,101607.34
2023-01-06T02:30:10.250Z,101595.22
2023-01-06T02:32:52.060Z,101579.53
2023-01-06T02:35:33.807Z,101593.28
2023-01-06T02:38:10.985Z,101587.25
2023-01-06T02:40:52.025Z,101584.38
2023-01-06T02:43:27.439Z,101590.28
2023-01-06T02:46:04.204Z,101586.31
2023-01-06T02:48:44.576Z,101589.44
2023-01-06T02:51:19.328Z,101579.34
2023-01-06T02:53:55.892Z,101575.28
2023-01-06T02:56:27.665Z,101588.03
2023-01-06T02:59:02.007Z,101578.31
2023-01-06T03:01:34.499Z,101576.22
2023-01-06T03:04:08.158Z,101574.91
2023-01-06T03:06:37.360Z,101562.19
2023-01-06T03:09:06.846Z,101565.53
2023-01-06T03:11:35.739Z,101574.53
2023-01-06T03:14:09.547Z,101567.91
2023-01-06T03:16:36.997Z,101559.19
2023-01-06T03:19:06.135Z,101554.19
2023-01-06T03:21:37.623Z,101539.22
2023-01-06T03:24:06.105Z,101541.53
2023-01-06T03:26:34.115Z,101539.31
2023-01-06T03:29:02.365Z,101544.13
2023-01-06T03:31:35.700Z,101545.47
2023-01-06T03:34:11.242Z,101540.53
2023-01-06T03:36:50.640Z,101530.84
2023-01-06T03:39:23.452Z,101528.94
2023-01-06T03:42:31.467Z,101521.41
2023-01-06T03:45:15.725Z,101528.28
2023-01-06T03:47:53.195Z,101528.78
2023-01-06T03:50:26.462Z,101525.38
2023-01-06T03:53:04.595Z,101525.00
2023-01-06T03:55:37.095Z,101518.00
2023-01-06T03:58:07.200Z,101509.84
2023-01-06T04:00:37.838Z,101513.19
2023-01-06T04:03:09.739Z,101501.50
2023-01-06T04:05:38.439Z,101517.09
2023-01-06T04:08:06.215Z,101503.44
2023-01-06T04:10:33.627Z,101504.66
2023-01-06T04:13:00.174Z,101499.31
2023-01-06T04:15:29.217Z,101499.72
2023-01-06T04:17:57.406Z,101502.09
2023-01-06T04:20:28.835Z,101494.75
2023-01-06T04:22:58.901Z,101491.16
2023-01-06T04:25:26.567Z,101487.97
2023-01-06T04:27:54.262Z,101485.81
2023-01-06T04:30:21.890Z,101486.09
2023-01-06T04:32:49.479Z,101488.78
2023-01-06T04:35:16.993Z,101482.41
2023-01-06T04:37:44.406Z,101472.41
2023-01-06T04:40:13.668Z,101465.75
2023-01-06T04:42:58.903Z,101461.47
2023-01-06T04:45:26.333Z,101467.19
2023-01-06T04:47:53.741Z,101463.81
2023-01-06T04:50:21.187Z,101452.72
2023-01-06T04:52:48.668Z,101438.69
2023-01-06T04:55:17.570Z,101433.31
2023-01-06T04:57:44.985Z,101412.06
2023-01-06T05:00:13.550Z,101416.09
2023-01-06T05:02:40.949Z,101431.44
2023-01-06T05:05:09.033Z,101422.84
2023-01-06T05:07:36.519Z,101412.44
2023-01-06T05:10:04.139Z,101417.91
2023-01-06T05:12:33.658Z,101407.38
2023-01-06T05:15:01.096Z,101406.44
2023-01-06T05:17:28.801Z,101413.84
2023-01-06T05:19:56.307Z,101409.72
2023-01-06T05:22:23.729Z,101408.53
2023-01-06T05:24:51.136Z,101403.41
2023-01-06T05:27:18.552Z,101407.69
2023-01-06T05:29:47.601Z,101407.78
2023-01-06T05:32:14.997Z,101392.22
2023-01-06T05:34:42.403Z,101389.78
2023-01-06T05:37:09.805Z,101385.75
2023-01-06T05:39:37.251Z,101374.88
2023-01-06T05:42:04.683Z,101386.06
2023-01-06T05:44:32.541Z,101386.78
2023-01-06T05:47:01.258Z,101393.50
2023-01-06T05:49:28.647Z,101388.41
2023-01-06T05:51:56.052Z,101381.31
2023-01-06T05:54:23.469Z,101378.81
2023-01-06T05:56:50.937Z,101372.19
2023-01-06T05:59:18.378Z,101375.03
2023-01-06T06:01:45.877Z,101378.72
2023-01-06T06:04:14.748Z,101381.84
2023-01-06T06:06:42.201Z,101381.59
2023-01-06T06:09:09.745Z,101375.31
2023-01-06T06:11:37.203Z,101382.47
2023-01-06T06:14:04.612Z,101385.81
2023-01-06T06:16:32.020Z,101371.22
2023-01-06T06:19:00.303Z,101366.38
2023-01-06T06:21:30.530Z,101361.63
2023-01-06T06:23:59.006Z,101343.44
2023-01-06T06:26:27.185Z,101339.78
2023-01-06T06:28:54.717Z,101345.66
2023-01-06T06:31:24.311Z,101346.50
2023-01-06T06:33:52.244Z,101347.19
2023-01-06T06:36:20.011Z,101344.16
2023-01-06T06:38:51.231Z,101342.09
2023-01-06T06:41:19.461Z,101343.81
2023-01-06T06:43:47.302Z,101337.88
2023-01-06T06:46:14.684Z,101329.63
2023-01-06T06:48:42.230Z,101328.78
2023-01-06T06:51:11.870Z,101330.38
2023-01-06T06:53:40.866Z,101324.66
2023-01-06T06:56:10.890Z,101330.56
2023-01-06T06:58:39.059Z,101330.16
2023-01-06T07:01:07.158Z,101321.69
2023-01-06T07:03:34.707Z,101327.50
2023-01-06T07:06:03.584Z,101314.22
2023-01-06T07:08:33.034Z,101304.97
2023-01-06T07:11:00.639Z,101311.31
2023-01-06T07:13:29.376Z,101313.75
2023-01-06T07:15:56.866Z,101310.03
2023-01-06T07:18:24.322Z,101302.59
2023-01-06T07:20:53.551Z,101312.44
2023-01-06T07:23:21.617Z,101310.59
2023-01-06T07:25:52.542Z,101314.38
2023-01-06T07:28:20.033Z,101308.59
2023-01-06T07:30:48.804Z,101318.59
2023-01-06T07:33:16.716Z,101315.63
2023-01-06T07:35:44.236Z,101314.34
2023-01-06T07:38:11.708Z,101308.00
2023-01-06T07:40:39.539Z,101311.63
2023-01-06T07:43:08.105Z,101312.09
2023-01-06T07:45:35.670Z,101313.06
2023-01-06T07:48:04.600Z,101325.72
2023-01-06T07:50:32.805Z,101325.00
2023-01-06T07:53:01.450Z,101323.09
2023-01-06T07:55:29.958Z,101321.97
2023-01-06T07:57:58.591Z,101323.25
2023-01-06T08:00:26.317Z,101306.41
2023-01-06T08:02:54.296Z,101316.66
2023-01-06T08:05:23.098Z,101311.84
2023-01-06T08:07:50.559Z,101298.72
2023-01-06T08:10:18.019Z,101294.94
2023-01-06T08:12:45.460Z,101290.53
2023-01-06T08:15:13.043Z,101290.81
2023-01-06T08:17:40.480Z,101285.41
2023-01-06T08:20:08.835Z,101282.19
2023-01-06T08:22:37.573Z,101274.63
2023-01-06T08:25:05.271Z,101297.00
2023-01-06T08:27:32.660Z,101282.81
2023-01-06T08:30:00.075Z,101271.22
2023-01-06T08:32:27.498Z,101260.72
2023-01-06T08:34:55.078Z,101256.13
2023-01-06T08:37:22.540Z,101250.63
2023-01-06T08:39:51.325Z,101263.97
2023-01-06T08:42:19.807Z,101266.34
2023-01-06T08:44:47.277Z,101280.13
2023-01-06T08:47:14.891Z,101268.53
2023-01-06T08:49:42.292Z,101256.78
2023-01-06T08:52:09.711Z,101249.22
2023-01-06T08:54:37.147Z,101250.50
2023-01-06T08:57:06.432Z,101245.38
2023-01-06T08:59:33.871Z,101241.25
2023-01-06T09:02:02.062Z,101222.03
2023-01-06T09:04:29.598Z,101226.66
2023-01-06T09:06:57.571Z,101234.88
2023-01-06T09:09:25.071Z,101234.25
2023-01-06T09:11:52.501Z,101238.53
2023-01-06T09:14:21.280Z,101241.78
2023-01-06T09:16:49.123Z,101248.78
2023-01-06T09:19:17.305Z,101255.28
2023-01-06T09:21:46.199Z,101256.00
2023-01-06T09:24:14.413Z,101241.41
2023-01-06T09:26:42.349Z,101237.16
2023-01-06T09:29:10.117Z,101217.50
2023-01-06T09:31:38.931Z,101215.50
2023-01-06T09:34:06.398Z,101221.81
2023-01-06T09:36:34.589Z,101232.44
2023-01-06T09:39:02.108Z,101222.25
2023-01-06T09:41:50.470Z,101217.50
2023-01-06T09:44:23.294Z,101210.34
2023-01-06T09:46:53.742Z,101205.28
2023-01-06T09:49:28.357Z,101197.91
2023-01-06T09:51:59.999Z,101196.91
2023-01-06T09:54:32.552Z,101193.91
2023-01-06T09:57:05.430Z,101177.69
2023-01-06T09:59:38.697Z,101170.00
2023-01-06T10:02:15.526Z,101183.72
2023-01-06T10:04:43.114Z,101171.03
2023-01-06T10:07:19.951Z,101170.91
2023-01-06T10:09:58.305Z,101158.56
2023-01-06T10:12:37.294Z,101150.97
2023-01-06T10:15:15.400Z,101149.97
2023-01-06T10:18:02.019Z,101140.56
2023-01-06T10:20:40.985Z,101145.69
2023-01-06T10:23:23.551Z,101134.00
2023-01-06T10:25:54.160Z,101144.31
2023-01-06T10:28:29.482Z,101141.25
2023-01-06T10:31:01.368Z,101135.44
2023-01-06T10:33:32.909Z,101123.03
2023-01-06T10:36:01.219Z,101119.66
2023-01-06T10:38:32.785Z,101105.78
2023-01-06T10:41:07.040Z,101105.91
2023-01-06T10:43:34.465Z,101106.16
2023-01-06T10:46:01.878Z,101105.78
2023-01-06T10:48:32.121Z,101106.81
2023-01-06T10:51:02.215Z,101106.91
2023-01-06T10:53:29.628Z,101108.78
2023-01-06T10:55:58.926Z,101097.84
2023-01-06T10:58:34.415Z,101108.16
2023-01-06T11:01:08.050Z,101106.50
2023-01-06T11:03:37.677Z,101099.19
2023-01-06T11:06:11.561Z,101100.22
2023-01-06T11:08:40.542Z,101093.44
2023-01-06T11:11:27.425Z,101093.28
2023-01-06T11:13:58.182Z,101097.78
2023-01-06T11:16:28.775Z,101086.88
2023-01-06T11:18:59.251Z,101084.06
2023-01-06T11:21:39.008Z,101079.66
2023-01-06T11:24:17.368Z,101077.53
2023-01-06T11:26:47.162Z,101066.03
2023-01-06T11:29:26.752Z,101071.16
2023-01-06T11:31:54.449Z,101067.72
2023-01-06T11:34:25.999Z,101063.38
2023-01-06T11:36:54.052Z,101054.84
2023-01-06T11:39:28.374Z,101051.63
2023-01-06T11:41:57.622Z,101054.91
2023-01-06T11:44:32.604Z,101048.03
2023-01-06T11:47:02.978Z,101054.13
2023-01-06T11:49:35.749Z,101048.28
2023-01-06T11:52:06.704Z,101055.44
2023-01-06T11:54:37.269Z,101056.06
2023-01-06T11:57:22.222Z,101053.34
2023-01-06T12:00:13.785Z,101054.91
2023-01-06T12:02:49.168Z,101037.06
2023-01-06T12:05:26.493Z,101024.31
2023-01-06T12:07:57.277Z,101027.56
2023-01-06T12:10:29.619Z,101027.59
2023-01-06T12:12:57.302Z,101026.41
2023-01-06T12:15:28.679Z,101032.81
2023-01-06T12:18:01.942Z,101025.06
2023-01-06T12:20:33.837Z,101019.25
2023-01-06T12:23:03.087Z,101024.41
2023-01-06T12:25:36.948Z,101021.41
2023-01-06T12:28:07.023Z,101010.41
2023-01-06T12:30:40.623Z,101004.50
2023-01-06T12:33:15.048Z,101003.63
2023-01-06T12:35:47.518Z,101006.41
2023-01-06T12:38:23.783Z,101003.94
2023-01-06T12:40:56.134Z,101001.31
2023-01-06T12:43:29.637Z,101001.25
2023-01-06T12:46:00.214Z,100993.97
2023-01-06T12:48:40.203Z,100997.81
2023-01-06T12:51:13.782Z,100987.28
2023-01-06T12:53:44.958Z,100994.81
2023-01-06T12:56:31.804Z,100998.34
2023-01-06T12:59:08.201Z,100998.56
2023-01-06T13:01:43.836Z,100995.28
2023-01-06T13:04:48.425Z,100995.47
2023-01-06T13:07:31.133Z,100991.59
2023-01-06T13:10:10.923Z,100997.59
2023-01-06T13:13:01.088Z,100991.06
2023-01-06T13:15:30.649Z,100998.84
2023-01-06T13:18:09.437Z,101002.28
2023-01-06T13:20:42.900Z,101004.72
2023-01-06T13:23:32.085Z,100995.03
2023-01-06T13:26:23.199Z,100999.56
2023-01-06T13:29:03.042Z,101009.25
2023-01-06T13:31:53.552Z,101007.22
2023-01-06T13:34:44.124Z,101011.13
2023-01-06T13:37:32.694Z,101014.91
2023-01-06T13:40:08.799Z,101012.19
2023-01-06T13:42:40.713Z,101009.81
2023-01-06T13:45:14.929Z,101015.66
2023-01-06T13:47:43.162Z,101018.69
2023-01-06T13:50:13.585Z,101016.06
2023-01-06T13:52:42.844Z,101019.31
2023-01-06T13:55:30.862Z,101020.81
2023-01-06T13:58:18.699Z,101031.78
2023-01-06T14:01:06.051Z,101022.81
2023-01-06T14:03:34.192Z,101029.50
2023-01-06T14:06:03.277Z,101035.88
2023-01-06T14:08:35.235Z,101036.78
2023-01-06T14:11:07.580Z,101046.88
2023-01-06T14:13:39.686Z,101049.94
2023-01-06T14:16:10.207Z,101046.78
2023-01-06T14:18:43.041Z,101055.75
2023-01-06T14:21:23.362Z,101044.28
2023-01-06T14:23:54.805Z,101053.50
2023-01-06T14:26:51.019Z,101054.84
2023-01-06T14:30:01.279Z,101060.06
2023-01-06T14:33:00.469Z,101055.34
2023-01-06T14:35:32.546Z,101076.56
2023-01-06T14:38:04.180Z,101076.06
2023-01-06T14:40:35.704Z,101082.16
2023-01-06T14:43:24.610Z,101081.19
2023-01-06T14:45:53.921Z,101073.97
2023-01-06T14:48:25.639Z,101077.53
2023-01-06T14:50:56.473Z,101076.47
2023-01-06T14:53:29.183Z,101077.16
2023-01-06T14:55:57.019Z,101081.63
2023-01-06T14:58:30.810Z,101079.22
2023-01-06T15:00:58.881Z,101091.91
2023-01-06T15:03:28.120Z,101086.84
2023-01-06T15:06:11.022Z,101091.44
2023-01-06T15:08:38.574Z,101087.47
2023-01-06T15:11:24.605Z,101096.59
2023-01-06T15:13:53.422Z,101089.63
2023-01-06T15:16:29.983Z,101093.31
2023-01-06T15:18:57.696Z,101092.19
2023-01-06T15:21:25.640Z,101092.28
2023-01-06T15:23:55.251Z,101098.28
2023-01-06T15:26:25.804Z,101090.53
2023-01-06T15:29:00.818Z,101098.59
2023-01-06T15:31:31.165Z,101094.00
2023-01-06T15:33:59.885Z,101098.06
2023-01-06T15:36:27.872Z,101115.25
2023-01-06T15:39:01.483Z,101112.81
2023-01-06T15:41:36.828Z,101127.19
2023-01-06T15:44:22.879Z,101135.09
2023-01-06T15:46:53.587Z,101149.13
2023-01-06T15:49:28.485Z,101153.75
2023-01-06T15:51:59.011Z,101159.72
2023-01-06T15:54:29.372Z,101169.50
2023-01-06T15:56:58.662Z,101169.97
2023-01-06T15:59:31.457Z,101170.28
2023-01-06T16:01:59.108Z,101164.84
2023-01-06T16:04:26.755Z,101161.97
2023-01-06T16:06:54.340Z,101162.50
2023-01-06T16:09:30.575Z,101175.47
2023-01-06T16:12:08.029Z,101178.59
2023-01-06T16:14:40.301Z,101175.31
2023-01-06T16:17:10.017Z,101177.59
2023-01-06T16:19:40.757Z,101181.97
2023-01-06T16:22:20.683Z,101185.03
2023-01-06T16:24:55.986Z,101189.03
2023-01-06T16:27:26.165Z,101186.50
2023-01-06T16:30:36.174Z,101189.19
2023-01-06T16:33:03.894Z,101191.16
2023-01-06T16:35:33.287Z,101195.38
2023-01-06T16:38:00.980Z,101203.84
2023-01-06T16:40:30.395Z,101199.00
2023-01-06T16:43:00.174Z,101201.84
2023-01-06T16:45:33.528Z,101205.94
2023-01-06T16:48:01.257Z,101208.41
2023-01-06T16:50:34.227Z,101207.47
2023-01-06T16:53:06.867Z,101207.63
2023-01-06T16:55:35.760Z,101210.28
2023-01-06T16:58:12.004Z,101215.50
2023-01-06T17:00:42.285Z,101220.63
2023-01-06T17:03:14.668Z,101220.72
2023-01-06T17:05:42.290Z,101219.13
2023-01-06T17:08:15.010Z,101219.19
2023-01-06T17:10:44.186Z,101215.63
2023-01-06T17:13:33.210Z,101219.38
2023-01-06T17:16:02.702Z,101227.25
2023-01-06T17:18:31.793Z,101237.59
2023-01-06T17:21:03.059Z,101234.16
2023-01-06T17:23:39.950Z,101244.31
2023-01-06T17:26:14.849Z,101253.84
2023-01-06T17:28:43.535Z,101252.06
2023-01-06T17:31:16.077Z,101255.34
2023-01-06T17:33:45.273Z,101250.41
2023-01-06T17:36:22.016Z,101260.28
2023-01-06T17:38:50.244Z,101259.88
2023-01-06T17:41:19.509Z,101266.50
2023-01-06T17:43:47.717Z,101269.91
2023-01-06T17:46:21.119Z,101273.25
2023-01-06T17:48:51.581Z,101271.81
2023-01-06T17:51:18.989Z,101275.75
2023-01-06T17:54:04.113Z,101281.00
2023-01-06T17:56:32.831Z,101278.00
2023-01-06T17:59:06.023Z,101284.47
2023-01-06T18:01:35.231Z,101287.31
2023-01-06T18:04:06.472Z,101291.25
2023-01-06T18:06:37.922Z,101296.00
2023-01-06T18:09:12.453Z,101300.25
2023-01-06T18:11:42.506Z,101295.16
2023-01-06T18:14:20.301Z,101294.66
2023-01-06T18:16:50.595Z,101296.47
2023-01-06T18:19:30.821Z,101304.69
2023-01-06T18:21:58.377Z,101306.56
2023-01-06T18:24:30.831Z,101304.81
2023-01-06T18:27:01.262Z,101308.78
2023-01-06T18:29:36.328Z,101308.84
2023-01-06T18:32:23.178Z,101310.88
2023-01-06T18:34:52.468Z,101310.28
2023-01-06T18:37:24.768Z,101304.94
2023-01-06T18:39:57.571Z,101305.72
2023-01-06T18:42:29.454Z,101304.81
2023-01-06T18:45:02.988Z,101305.19
2023-01-06T18:47:32.130Z,101308.06
2023-01-06T18:50:19.284Z,101302.44
2023-01-06T18:52:48.275Z,101304.28
2023-01-06T18:55:20.757Z,101306.41
2023-01-06T18:57:56.130Z,101317.16
2023-01-06T19:00:40.444Z,101309.72
2023-01-06T19:03:30.942Z,101308.09
2023-01-06T19:06:30.552Z,101312.56
2023-01-06T19:08:58.020Z,101316.84
2023-01-06T19:11:27.423Z,101315.97
2023-01-06T19:14:00.607Z,101320.34
2023-01-06T19:16:34.284Z,101325.31
2023-01-06T19:19:25.462Z,101323.56
2023-01-06T19:21:54.380Z,101326.41
2023-01-06T19:24:41.286Z,101323.72
2023-01-06T19:27:28.409Z,101329.25
2023-01-06T19:30:02.212Z,101321.66
2023-01-06T19:32:36.634Z,101325.31
2023-01-06T19:35:16.901Z,101328.91
2023-01-06T19:37:44.317Z,101334.97
2023-01-06T19:40:24.369Z,101344.16
2023-01-06T19:42:54.435Z,101343.78
2023-01-06T19:45:30.234Z,101347.81
2023-01-06T19:48:00.343Z,101348.06
2023-01-06T19:50:27.759Z,101345.94
2023-01-06T19:52:57.861Z,101347.38
2023-01-06T19:55:27.543Z,101345.22
2023-01-06T19:57:56.879Z,101348.94
2023-01-06T20:00:29.127Z,101351.03
2023-01-06T20:02:58.788Z,101346.69
2023-01-06T20:05:27.348Z,101355.03
2023-01-06T20:07:57.535Z,101359.03
2023-01-06T20:10:24.975Z,101360.94
2023-01-06T20:12:52.428Z,101360.03
2023-01-06T20:15:19.954Z,101357.25
2023-01-06T20:17:48.849Z,101361.88
2023-01-06T20:20:16.497Z,101362.50
2023-01-06T20:22:44.737Z,101370.97
2023-01-06T20:25:15.405Z,101368.28
2023-01-06T20:27:42.821Z,101367.16
2023-01-06T20:30:10.975Z,101373.75
2023-01-06T20:32:38.701Z,101366.97
2023-01-06T20:35:09.317Z,101363.59
2023-01-06T20:37:36.821Z,101371.00
2023-01-06T20:40:04.451Z,101367.53
2023-01-06T20:42:31.852Z,101362.78
2023-01-06T20:44:59.357Z,101358.81
2023-01-06T20:47:26.784Z,101350.84
2023-01-06T20:49:56.698Z,101363.63
2023-01-06T20:52:25.581Z,101367.22
2023-01-06T20:54:53.115Z,101368.72
2023-01-06T20:57:20.590Z,101373.91
2023-01-06T20:59:48.035Z,101375.69
2023-01-06T21:02:15.531Z,101379.75
2023-01-06T21:04:42.996Z,101383.22
2023-01-06T21:07:10.429Z,101384.44
2023-01-06T21:09:39.193Z,101374.50
2023-01-06T21:12:07.379Z,101388.63
2023-01-06T21:14:35.424Z,101380.41
2023-01-06T21:17:03.742Z,101391.72
2023-01-06T21:19:31.442Z,101384.75
2023-01-06T21:22:01.302Z,101384.09
2023-01-06T21:24:28.761Z,101385.69
2023-01-06T21:26:57.647Z,101387.72
2023-01-06T21:29:27.473Z,101392.31
2023-01-06T21:31:54.937Z,101397.97
2023-01-06T21:34:22.382Z,101384.03
2023-01-06T21:36:49.847Z,101393.31
2023-01-06T21:39:17.285Z,101392.69
2023-01-06T21:42:02.283Z,101385.31
2023-01-06T21:44:31.117Z,101388.19
2023-01-06T21:46:59.749Z,101391.66
2023-01-06T21:49:27.281Z,101392.22
2023-01-06T21:51:55.886Z,101391.44
2023-01-06T21:54:23.419Z,101395.13
2023-01-06T21:56:51.405Z,101402.03
2023-01-06T21:59:18.874Z,101401.19
2023-01-06T22:01:47.748Z,101398.25
2023-01-06T22:04:15.312Z,101400.22
2023-01-06T22:06:44.422Z,101398.72
2023-01-06T22:09:13.815Z,101397.09
2023-01-06T22:11:41.983Z,101405.88
2023-01-06T22:14:10.812Z,101403.97
2023-01-06T22:16:40.242Z,101411.28
2023-01-06T22:19:12.048Z,101412.66
2023-01-06T22:21:40.531Z,101405.22
2023-01-06T22:24:11.731Z,101411.00
2023-01-06T22:26:39.179Z,101409.72
2023-01-06T22:29:08.152Z,101418.75
2023-01-06T22:31:35.652Z,101411.59
2023-01-06T22:34:03.084Z,101408.81
2023-01-06T22:36:31.819Z,101415.66
2023-01-06T22:38:59.295Z,101420.09
2023-01-06T22:41:26.724Z,101422.56
2023-01-06T22:43:54.105Z,101423.31
2023-01-06T22:46:21.635Z,101428.34
2023-01-06T22:48:49.207Z,101425.25
2023-01-06T22:51:16.624Z,101424.81
2023-01-06T22:53:45.458Z,101422.19
2023-01-06T22:56:13.262Z,101420.28
2023-01-06T22:58:41.629Z,101414.38
2023-01-06T23:01:09.650Z,101410.09
2023-01-06T23:03:37.690Z,101413.72
2023-01-06T23:06:07.396Z,101414.09
2023-01-06T23:08:40.587Z,101408.88
2023-01-06T23:11:13.856Z,101407.09
2023-01-06T23:13:42.550Z,101404.56
2023-01-06T23:16:12.399Z,101402.59
2023-01-06T23:18:41.713Z,101399.31
2023-01-06T23:21:11.100Z,101406.88
2023-01-06T23:23:40.432Z,101399.09
2023-01-06T23:26:11.829Z,101407.63
2023-01-06T23:28:39.925Z,101408.50
2023-01-06T23:31:09.500Z,101405.81
2023-01-06T23:33:38.597Z,101409.88
2023-01-06T23:36:07.198Z,101413.16
2023-01-06T23:38:34.702Z,101418.03
2023-01-06T23:41:03.818Z,101406.13
2023-01-06T23:43:34.611Z,101401.75
2023-01-06T23:46:02.975Z,101402.16
2023-01-06T23:48:31.638Z,101409.63
2023-01-06T23:50:59.290Z,101403.75
2023-01-06T23:53:27.900Z,101408.91
2023-01-06T23:55:56.621Z,101415.19
2023-01-06T23:58:24.776Z,101415.00
